This is the latest recevied weather packets stored in our database for station/object KC7UNY-13. If no packets are shown the sender has not sent any weather packets the latest 10 day(s).
| Time | Temp. | Humidity | Pressure | Rain* | Wind** | Luminosity | Snow |
|---|---|---|---|---|---|---|---|
| 1777428941 | 26.11° C | 20% | 1012.9 hPa | 0 mm | - | 1 W/m² | - |
| 1777428637 | 26.11° C | 20% | 1013 hPa | 0 mm | - | 2 W/m² | - |
| 1777428333 | 26.67° C | 19% | 1012.8 hPa | 0 mm | - | 3 W/m² | - |
| 1777428028 | 26.67° C | 19% | 1012.9 hPa | 0 mm | - | 5 W/m² | - |
| 1777427725 | 27.22° C | 18% | 1012.6 hPa | 0 mm | - | 7 W/m² | - |
| 1777427423 | 27.22° C | 18% | 1012.8 hPa | 0 mm | - | 10 W/m² | - |
| 1777427118 | 27.22° C | 18% | 1012.8 hPa | 0 mm | - | 12 W/m² | - |
| 1777426816 | 27.78° C | 18% | 1012.7 hPa | 0 mm | - | 17 W/m² | - |
| 1777426513 | 27.78° C | 17% | 1012.6 hPa | 0 mm | - | 19 W/m² | - |
| 1777426208 | 27.78° C | 18% | 1012.8 hPa | 0 mm | - | 24 W/m² | - |
| 1777425903 | 28.33° C | 17% | 1012.9 hPa | 0 mm | - | 33 W/m² | - |
| 1777425599 | 28.33° C | 17% | 1013 hPa | 0 mm | - | 44 W/m² | - |
| 1777425295 | 28.33° C | 17% | 1012.9 hPa | 0 mm | - | 50 W/m² | - |
| 1777424992 | 29.44° C | 16% | 1012.8 hPa | 0 mm | - | 72 W/m² | - |
| 1777424687 | 28.89° C | 17% | 1012.9 hPa | 0 mm | - | 84 W/m² | - |
| 1777424382 | 28.89° C | 16% | 1012.8 hPa | 0 mm | - | 84 W/m² | - |
| 1777424078 | 28.89° C | 17% | 1013 hPa | 0 mm | - | 104 W/m² | - |
| 1777423776 | 28.89° C | 16% | 1013 hPa | 0 mm | - | 91 W/m² | - |
| 1777423472 | 28.89° C | 16% | 1012.9 hPa | 0 mm | - | 95 W/m² | - |
| 1777423167 | 29.44° C | 15% | 1012.9 hPa | 0 mm | - | 84 W/m² | - |
| 1777422861 | 29.44° C | 16% | 1013.2 hPa | 0 mm | - | 121 W/m² | - |
| 1777422557 | 30° C | 15% | 1013 hPa | 0 mm | - | 142 W/m² | - |
| 1777422253 | 30° C | 15% | 1012.9 hPa | 0 mm | - | 154 W/m² | - |
| 1777421947 | 29.44° C | 15% | 1013.2 hPa | 0 mm | - | 131 W/m² | - |
| 1777421643 | 30° C | 15% | 1013.2 hPa | 0 mm | - | 127 W/m² | - |
* Rain latest hour (hover to see other rain measurements)
** Current wind speed in m/s (hover to see current wind gust speed)